Terminal Aerodrome Forecast
Issued by NWS Louisville, KY

Home | Current Version | Previous Version | Text Only | Print | Product List | Glossary On
Versions: 1 2 3 4 5 6 7 8 9 10 11 12 13 14 15 16 17 18
000
FTUS43 KLMK 201500 AAA
TAFBWG
TAF AMD
KBWG 201516Z 2015/2112 25007KT P6SM BKN016
     FM201800 22007KT P6SM BKN025
     FM202200 22003KT P6SM VCTS BKN050CB
     FM210400 20003KT P6SM SCT050 BKN250=

USA.gov is the U.S. government's official web portal to all federal, state and local government web resources and services.